Weather reports worldwide

Advertisment
Ross-on-Wye, United Kingdom (99207): temperature & dewpoint: 19.09.2018 22:00:00 - 25.09.2018 22:00:00 (BST)Ross-on-Wye, United Kingdom (99207): wind speed: 19.09.2018 22:00:00 - 25.09.2018 22:00:00 (BST)Ross-on-Wye, United Kingdom (99207): wind direction: 19.09.2018 22:00:00 - 25.09.2018 22:00:00 (BST)Ross-on-Wye, United Kingdom (99207): sunshine duration: 19.09.2018 22:00:00 - 25.09.2018 22:00:00 (BST)Ross-on-Wye, United Kingdom (99207): precipitation: 19.09.2018 22:00:00 - 25.09.2018 22:00:00 (BST)
Date & Time tt [°C] td [°C] ff [km/h] ff [kn] dd sd [min] rr [mm]
25.09.2018 22:00:00 11,8 7,8 - - - - 0,0
25.09.2018 21:00:00 11,9 8,0 - - - - 0,0
25.09.2018 20:00:00 12,6 8,1 - - - - 0,0
25.09.2018 19:00:00 14,2 7,7 - - - - 0,0
25.09.2018 18:00:00 15,4 7,7 - - - - 0,0
25.09.2018 17:00:00 16,2 7,2 - - - - 0,0
25.09.2018 16:00:00 16,5 6,9 - - - - 0,0
25.09.2018 15:00:00 16,4 6,9 - - - - 0,0
25.09.2018 14:00:00 16,2 6,5 - - - - 0,0
25.09.2018 13:00:00 15,7 6,1 - - - - 0,0
25.09.2018 12:00:00 14,5 6,3 - - - - 0,0
25.09.2018 11:00:00 11,7 7,3 - - - - 0,0
25.09.2018 10:00:00 6,6 6,4 - - - - 0,0
25.09.2018 09:00:00 2,9 2,9 - - - - 0,0
25.09.2018 08:00:00 1,5 1,3 - - - - 0,0
25.09.2018 07:00:00 2,0 1,8 - - - - 0,0
25.09.2018 06:00:00 1,6 1,3 - - - - 0,0
25.09.2018 05:00:00 2,2 1,9 - - - - 0,0
25.09.2018 04:00:00 2,9 2,6 - - - - 0,0
25.09.2018 03:00:00 3,1 2,8 - - - - 0,0
25.09.2018 02:00:00 3,5 3,1 - - - - 0,0
25.09.2018 01:00:00 4,2 3,6 - - - - 0,0
25.09.2018 00:00:00 4,9 4,2 - - - - 0,0
24.09.2018 23:00:00 5,8 4,7 - - - - 0,0
24.09.2018 22:00:00 6,6 5,3 - - - - 0,0
24.09.2018 21:00:00 7,8 5,7 - - - - 0,0
24.09.2018 20:00:00 9,7 5,0 - - - - 0,0
24.09.2018 19:00:00 12,3 3,7 - - - - 0,0
24.09.2018 18:00:00 14,0 3,2 - - - - 0,0
24.09.2018 17:00:00 15,5 2,6 - - - - 0,0
24.09.2018 16:00:00 15,4 3,1 - - - - 0,0
24.09.2018 15:00:00 15,4 4,2 - - - - 0,0
24.09.2018 14:00:00 14,3 5,2 - - - - 0,0
24.09.2018 13:00:00 14,9 4,2 - - - - 0,0
24.09.2018 12:00:00 13,4 4,9 - - - - 0,0
24.09.2018 11:00:00 12,1 6,0 - - - - 0,0
24.09.2018 10:00:00 9,5 5,4 - - - - 0,0
24.09.2018 09:00:00 5,6 5,2 - - - - 0,0
24.09.2018 08:00:00 3,9 3,5 - - - - 0,0
24.09.2018 07:00:00 3,7 3,1 - - - - 0,0
24.09.2018 06:00:00 4,5 3,8 - - - - 0,0
24.09.2018 05:00:00 5,0 3,9 - - - - 0,0
24.09.2018 04:00:00 6,2 4,4 - - - - 0,0
24.09.2018 03:00:00 6,4 4,4 - - - - 0,0
24.09.2018 02:00:00 6,0 4,4 - - - - 0,0
24.09.2018 01:00:00 6,5 4,2 - - - - 0,0
24.09.2018 00:00:00 7,2 4,5 - - - - 0,0
23.09.2018 23:00:00 7,6 4,7 - - - - 0,0
23.09.2018 22:00:00 7,9 4,7 - - - - 0,0
23.09.2018 21:00:00 8,4 4,5 - - - - 0,0
23.09.2018 20:00:00 9,7 4,1 - - - - 0,0
23.09.2018 19:00:00 11,1 4,4 - - - - 0,0
23.09.2018 18:00:00 12,7 5,0 - - - - 0,0
23.09.2018 17:00:00 11,5 4,7 - - - - 0,0
23.09.2018 16:00:00 12,8 6,8 - - - - 0,0
23.09.2018 15:00:00 13,4 6,7 - - - - 0,0
23.09.2018 14:00:00 11,0 6,4 - - - - 0,0
23.09.2018 13:00:00 11,7 7,0 - - - - 0,0
23.09.2018 12:00:00 10,2 7,3 - - - - 0,0
23.09.2018 11:00:00 8,6 6,8 - - - - 0,2
23.09.2018 10:00:00 7,8 6,6 - - - - 1,4
23.09.2018 09:00:00 8,2 7,4 - - - - 2,0
23.09.2018 08:00:00 8,6 8,0 - - - - 1,6
23.09.2018 07:00:00 8,8 8,3 - - - - 0,2
23.09.2018 06:00:00 8,8 8,2 - - - - 0,2
23.09.2018 05:00:00 9,3 8,8 - - - - 0,0
23.09.2018 04:00:00 9,4 8,8 - - - - 0,0
23.09.2018 03:00:00 9,5 9,0 - - - - 0,0
23.09.2018 02:00:00 9,4 9,0 - - - - 0,0
23.09.2018 01:00:00 9,5 9,1 - - - - 0,0
23.09.2018 00:00:00 9,6 9,2 - - - - 0,0
22.09.2018 23:00:00 9,7 9,3 - - - - 0,0
22.09.2018 22:00:00 9,6 9,3 - - - - 0,0
22.09.2018 21:00:00 9,7 9,4 - - - - 0,2
22.09.2018 20:00:00 9,7 9,2 - - - - 0,2
22.09.2018 19:00:00 9,9 9,2 - - - - 0,0
22.09.2018 18:00:00 10,1 9,1 - - - - 0,2
22.09.2018 17:00:00 10,2 8,9 - - - - 0,4
22.09.2018 16:00:00 10,2 8,7 - - - - 0,8
22.09.2018 15:00:00 10,8 9,4 - - - - 1,4
22.09.2018 14:00:00 10,6 8,6 - - - - 0,6
22.09.2018 13:00:00 10,7 8,9 - - - - 0,4
22.09.2018 12:00:00 10,7 9,0 - - - - 0,6
22.09.2018 11:00:00 10,9 9,1 - - - - 0,2
22.09.2018 10:00:00 11,6 9,2 - - - - 0,0
22.09.2018 09:00:00 11,2 8,2 - - - - 0,0
22.09.2018 08:00:00 10,7 8,0 - - - - 0,0
22.09.2018 07:00:00 10,5 7,9 - - - - 0,0
22.09.2018 06:00:00 10,5 7,6 - - - - 0,0
22.09.2018 05:00:00 10,6 7,2 - - - - 0,0
22.09.2018 04:00:00 10,7 7,2 - - - - 0,0
22.09.2018 03:00:00 10,5 8,1 - - - - 0,0
22.09.2018 02:00:00 10,6 8,2 - - - - 0,0
22.09.2018 01:00:00 10,7 8,2 - - - - 0,0
22.09.2018 00:00:00 11,0 8,0 - - - - 0,0
21.09.2018 23:00:00 11,0 7,6 - - - - 0,0
21.09.2018 22:00:00 11,2 7,5 - - - - 0,0
21.09.2018 21:00:00 12,1 7,4 - - - - 0,0
21.09.2018 20:00:00 12,8 7,3 - - - - 0,0
21.09.2018 19:00:00 13,7 6,4 - - - - 0,0
21.09.2018 18:00:00 14,9 6,3 - - - - 0,0
21.09.2018 17:00:00 15,0 5,2 - - - - 0,0
21.09.2018 16:00:00 15,3 4,9 - - - - 0,0
21.09.2018 15:00:00 15,2 5,0 - - - - 0,0
21.09.2018 14:00:00 15,1 7,3 - - - - 0,0
21.09.2018 13:00:00 13,7 6,2 - - - - 0,0
21.09.2018 12:00:00 13,3 6,1 - - - - 0,0
21.09.2018 11:00:00 12,9 5,2 - - - - 0,0
21.09.2018 10:00:00 12,4 5,4 - - - - 0,0
21.09.2018 09:00:00 10,8 5,4 - - - - 0,0
21.09.2018 08:00:00 8,8 5,5 - - - - 0,0
21.09.2018 07:00:00 8,9 5,1 - - - - 0,0
21.09.2018 06:00:00 9,1 5,1 - - - - 0,0
21.09.2018 05:00:00 9,7 5,6 - - - - 0,0
21.09.2018 04:00:00 10,7 7,0 - - - - 0,0
21.09.2018 03:00:00 11,1 7,1 - - - - 0,0
21.09.2018 02:00:00 13,2 9,3 - - - - 0,0
21.09.2018 01:00:00 14,7 11,0 - - - - 0,0
21.09.2018 00:00:00 16,1 14,3 - - - - 5,6
20.09.2018 23:00:00 17,2 16,0 - - - - 2,8
20.09.2018 22:00:00 17,0 16,0 - - - - 3,0
20.09.2018 21:00:00 17,2 16,1 - - - - 0,8
20.09.2018 20:00:00 17,1 15,8 - - - - 1,6
20.09.2018 19:00:00 17,9 15,3 - - - - 0,0
20.09.2018 18:00:00 18,3 15,3 - - - - 0,0
20.09.2018 17:00:00 18,3 15,8 - - - - 0,0
20.09.2018 16:00:00 18,5 15,7 - - - - 0,0
20.09.2018 15:00:00 18,3 15,5 - - - - 0,0
20.09.2018 14:00:00 17,5 15,8 - - - - 0,0
20.09.2018 13:00:00 16,4 15,9 - - - - 0,0
20.09.2018 12:00:00 14,0 13,7 - - - - 0,8
20.09.2018 11:00:00 13,4 13,2 0 0 N 0 2,0
20.09.2018 10:00:00 13,1 12,9 - - - - 2,0
20.09.2018 09:00:00 12,7 12,6 - - - - 0,4
20.09.2018 08:00:00 12,3 12,1 - - - - 0,2
20.09.2018 07:00:00 12,0 11,8 - - - - 2,8
20.09.2018 06:00:00 11,9 11,7 - - - - 1,2
20.09.2018 05:00:00 11,8 11,6 - - - - 1,4
20.09.2018 04:00:00 11,7 11,3 - - - - 1,0
20.09.2018 03:00:00 11,6 11,3 - - - - 0,8
20.09.2018 02:00:00 11,7 11,0 - - - - 2,2
20.09.2018 01:00:00 12,6 10,0 - - - - 0,0
20.09.2018 00:00:00 12,8 9,0 - - - - 0,0
19.09.2018 23:00:00 13,2 8,9 - - - - 0,0
19.09.2018 22:00:00 13,3 9,6 - - - - 0,0

tt = temperature
td = dewpoint
ff = wind speed
dd = wind direction
sd = sunshine duration
rr = precipitation

Next stations